sensor_id;sensor_type;location;lat;lon;timestamp;temperature;humidity
62154;DHT22;48140;45.486;9.226;2022-11-20T00:01:18;9.00;92.30
62154;DHT22;48140;45.486;9.226;2022-11-20T00:03:45;8.90;92.70
62154;DHT22;48140;45.486;9.226;2022-11-20T00:06:12;8.90;92.80
62154;DHT22;48140;45.486;9.226;2022-11-20T00:08:37;8.80;92.70
62154;DHT22;48140;45.486;9.226;2022-11-20T00:11:11;8.80;92.90
62154;DHT22;48140;45.486;9.226;2022-11-20T00:13:36;8.80;93.00
62154;DHT22;48140;45.486;9.226;2022-11-20T00:16:03;8.70;93.30
62154;DHT22;48140;45.486;9.226;2022-11-20T00:18:29;8.70;93.40
62154;DHT22;48140;45.486;9.226;2022-11-20T00:21:00;8.60;93.40
62154;DHT22;48140;45.486;9.226;2022-11-20T00:23:25;8.60;93.50
62154;DHT22;48140;45.486;9.226;2022-11-20T00:25:51;8.60;93.60
62154;DHT22;48140;45.486;9.226;2022-11-20T00:28:16;8.60;93.90
62154;DHT22;48140;45.486;9.226;2022-11-20T00:30:42;8.60;94.10
62154;DHT22;48140;45.486;9.226;2022-11-20T00:33:07;8.50;94.30
62154;DHT22;48140;45.486;9.226;2022-11-20T00:35:33;8.60;94.40
62154;DHT22;48140;45.486;9.226;2022-11-20T00:37:58;8.60;94.80
62154;DHT22;48140;45.486;9.226;2022-11-20T00:40:24;8.50;94.80
62154;DHT22;48140;45.486;9.226;2022-11-20T00:42:49;8.50;95.00
62154;DHT22;48140;45.486;9.226;2022-11-20T00:45:15;8.50;94.90
62154;DHT22;48140;45.486;9.226;2022-11-20T00:47:40;8.50;94.90
62154;DHT22;48140;45.486;9.226;2022-11-20T00:50:07;8.50;95.00
62154;DHT22;48140;45.486;9.226;2022-11-20T00:52:33;8.50;95.00
62154;DHT22;48140;45.486;9.226;2022-11-20T00:54:58;8.50;95.10
62154;DHT22;48140;45.486;9.226;2022-11-20T00:57:24;8.40;95.40
62154;DHT22;48140;45.486;9.226;2022-11-20T00:59:49;8.40;95.90
62154;DHT22;48140;45.486;9.226;2022-11-20T01:02:15;8.50;95.50
62154;DHT22;48140;45.486;9.226;2022-11-20T01:04:41;8.40;95.50
62154;DHT22;48140;45.486;9.226;2022-11-20T01:07:07;8.40;95.70
62154;DHT22;48140;45.486;9.226;2022-11-20T01:09:32;8.40;95.60
62154;DHT22;48140;45.486;9.226;2022-11-20T01:11:58;8.40;95.70
62154;DHT22;48140;45.486;9.226;2022-11-20T01:14:24;8.30;95.90
62154;DHT22;48140;45.486;9.226;2022-11-20T01:16:50;8.30;95.80
62154;DHT22;48140;45.486;9.226;2022-11-20T01:19:20;8.30;96.00
62154;DHT22;48140;45.486;9.226;2022-11-20T01:21:48;8.30;96.30
62154;DHT22;48140;45.486;9.226;2022-11-20T01:24:14;8.20;96.60
62154;DHT22;48140;45.486;9.226;2022-11-20T01:26:41;8.20;97.00
62154;DHT22;48140;45.486;9.226;2022-11-20T01:29:09;8.20;97.30
62154;DHT22;48140;45.486;9.226;2022-11-20T01:31:36;8.20;97.70
62154;DHT22;48140;45.486;9.226;2022-11-20T01:34:04;8.10;98.30
62154;DHT22;48140;45.486;9.226;2022-11-20T01:36:30;8.10;99.00
62154;DHT22;48140;45.486;9.226;2022-11-20T01:38:57;8.00;98.80
62154;DHT22;48140;45.486;9.226;2022-11-20T01:41:23;8.00;99.10
62154;DHT22;48140;45.486;9.226;2022-11-20T01:44:08;8.00;99.00
62154;DHT22;48140;45.486;9.226;2022-11-20T01:46:35;7.90;99.10
62154;DHT22;48140;45.486;9.226;2022-11-20T01:51:48;7.80;99.30
62154;DHT22;48140;45.486;9.226;2022-11-20T01:54:21;7.80;99.90
62154;DHT22;48140;45.486;9.226;2022-11-20T01:56:49;7.90;99.90
62154;DHT22;48140;45.486;9.226;2022-11-20T01:59:17;7.90;99.90
62154;DHT22;48140;45.486;9.226;2022-11-20T02:01:43;7.90;99.90
62154;DHT22;48140;45.486;9.226;2022-11-20T02:04:09;7.90;99.60
62154;DHT22;48140;45.486;9.226;2022-11-20T02:06:36;7.80;99.70
62154;DHT22;48140;45.486;9.226;2022-11-20T02:09:04;7.90;99.90
62154;DHT22;48140;45.486;9.226;2022-11-20T02:11:30;7.80;99.90
62154;DHT22;48140;45.486;9.226;2022-11-20T02:13:55;7.90;99.90
62154;DHT22;48140;45.486;9.226;2022-11-20T02:16:22;7.90;99.90
62154;DHT22;48140;45.486;9.226;2022-11-20T02:18:48;7.90;99.30
62154;DHT22;48140;45.486;9.226;2022-11-20T02:26:20;7.80;98.50
62154;DHT22;48140;45.486;9.226;2022-11-20T02:28:47;7.80;98.30
62154;DHT22;48140;45.486;9.226;2022-11-20T02:31:13;7.70;98.40
62154;DHT22;48140;45.486;9.226;2022-11-20T02:33:38;7.70;98.70
62154;DHT22;48140;45.486;9.226;2022-11-20T02:36:04;7.70;98.60
62154;DHT22;48140;45.486;9.226;2022-11-20T02:38:29;7.70;98.70
62154;DHT22;48140;45.486;9.226;2022-11-20T02:40:55;7.70;98.80
62154;DHT22;48140;45.486;9.226;2022-11-20T02:43:20;7.70;98.20
62154;DHT22;48140;45.486;9.226;2022-11-20T02:45:46;7.70;98.40
62154;DHT22;48140;45.486;9.226;2022-11-20T02:48:11;7.70;98.30
62154;DHT22;48140;45.486;9.226;2022-11-20T02:50:37;7.70;98.20
62154;DHT22;48140;45.486;9.226;2022-11-20T02:53:04;7.70;98.10
62154;DHT22;48140;45.486;9.226;2022-11-20T02:55:29;7.70;97.90
62154;DHT22;48140;45.486;9.226;2022-11-20T02:57:55;7.70;97.90
62154;DHT22;48140;45.486;9.226;2022-11-20T03:00:21;7.60;97.50
62154;DHT22;48140;45.486;9.226;2022-11-20T03:02:46;7.70;97.50
62154;DHT22;48140;45.486;9.226;2022-11-20T03:05:12;7.70;97.60
62154;DHT22;48140;45.486;9.226;2022-11-20T03:07:37;7.70;98.10
62154;DHT22;48140;45.486;9.226;2022-11-20T03:10:03;7.70;97.70
62154;DHT22;48140;45.486;9.226;2022-11-20T03:12:29;7.70;97.60
62154;DHT22;48140;45.486;9.226;2022-11-20T03:14:54;7.70;97.50
62154;DHT22;48140;45.486;9.226;2022-11-20T03:17:20;7.70;97.50
62154;DHT22;48140;45.486;9.226;2022-11-20T03:19:46;7.70;97.50
62154;DHT22;48140;45.486;9.226;2022-11-20T03:22:11;7.70;97.60
62154;DHT22;48140;45.486;9.226;2022-11-20T03:24:37;7.60;97.30
62154;DHT22;48140;45.486;9.226;2022-11-20T03:27:02;7.50;97.00
62154;DHT22;48140;45.486;9.226;2022-11-20T03:29:28;7.60;97.10
62154;DHT22;48140;45.486;9.226;2022-11-20T03:31:53;7.50;97.30
62154;DHT22;48140;45.486;9.226;2022-11-20T03:34:19;7.50;97.50
62154;DHT22;48140;45.486;9.226;2022-11-20T03:36:44;7.60;97.50
62154;DHT22;48140;45.486;9.226;2022-11-20T03:39:10;7.50;97.50
62154;DHT22;48140;45.486;9.226;2022-11-20T03:41:36;7.60;97.70
62154;DHT22;48140;45.486;9.226;2022-11-20T03:44:05;7.50;97.40
62154;DHT22;48140;45.486;9.226;2022-11-20T03:46:30;7.50;97.40
62154;DHT22;48140;45.486;9.226;2022-11-20T03:48:57;7.50;97.10
62154;DHT22;48140;45.486;9.226;2022-11-20T03:51:23;7.50;97.00
62154;DHT22;48140;45.486;9.226;2022-11-20T03:53:50;7.50;97.10
62154;DHT22;48140;45.486;9.226;2022-11-20T03:56:16;7.50;97.10
62154;DHT22;48140;45.486;9.226;2022-11-20T03:58:42;7.50;97.10
62154;DHT22;48140;45.486;9.226;2022-11-20T04:01:12;7.40;97.00
62154;DHT22;48140;45.486;9.226;2022-11-20T04:03:38;7.40;97.00
62154;DHT22;48140;45.486;9.226;2022-11-20T04:06:23;7.40;96.70
62154;DHT22;48140;45.486;9.226;2022-11-20T04:08:49;7.40;96.40
62154;DHT22;48140;45.486;9.226;2022-11-20T04:11:16;7.50;95.90
62154;DHT22;48140;45.486;9.226;2022-11-20T04:13:42;7.40;96.00
62154;DHT22;48140;45.486;9.226;2022-11-20T04:16:09;7.40;95.80
62154;DHT22;48140;45.486;9.226;2022-11-20T04:18:35;7.40;96.00
62154;DHT22;48140;45.486;9.226;2022-11-20T04:21:00;7.40;96.30
62154;DHT22;48140;45.486;9.226;2022-11-20T04:23:26;7.30;97.20
62154;DHT22;48140;45.486;9.226;2022-11-20T04:25:52;7.40;97.00
62154;DHT22;48140;45.486;9.226;2022-11-20T04:28:20;7.40;96.70
62154;DHT22;48140;45.486;9.226;2022-11-20T04:30:46;7.30;96.90
62154;DHT22;48140;45.486;9.226;2022-11-20T04:33:11;7.30;96.70
62154;DHT22;48140;45.486;9.226;2022-11-20T04:35:37;7.30;96.90
62154;DHT22;48140;45.486;9.226;2022-11-20T04:38:03;7.40;96.30
62154;DHT22;48140;45.486;9.226;2022-11-20T04:40:29;7.30;96.00
62154;DHT22;48140;45.486;9.226;2022-11-20T04:42:55;7.20;96.20
62154;DHT22;48140;45.486;9.226;2022-11-20T04:45:20;7.30;97.00
62154;DHT22;48140;45.486;9.226;2022-11-20T04:47:46;7.40;96.80
62154;DHT22;48140;45.486;9.226;2022-11-20T04:50:11;7.30;97.00
62154;DHT22;48140;45.486;9.226;2022-11-20T04:52:37;7.30;97.10
62154;DHT22;48140;45.486;9.226;2022-11-20T04:55:02;7.20;97.10
62154;DHT22;48140;45.486;9.226;2022-11-20T04:57:28;7.20;97.20
62154;DHT22;48140;45.486;9.226;2022-11-20T04:59:53;7.20;97.00
62154;DHT22;48140;45.486;9.226;2022-11-20T05:02:19;7.20;97.00
62154;DHT22;48140;45.486;9.226;2022-11-20T05:04:45;7.20;96.70
62154;DHT22;48140;45.486;9.226;2022-11-20T05:07:10;7.30;96.50
62154;DHT22;48140;45.486;9.226;2022-11-20T05:09:36;7.30;96.40
62154;DHT22;48140;45.486;9.226;2022-11-20T05:12:01;7.30;96.30
62154;DHT22;48140;45.486;9.226;2022-11-20T05:14:27;7.30;96.70
62154;DHT22;48140;45.486;9.226;2022-11-20T05:16:52;7.20;95.40
62154;DHT22;48140;45.486;9.226;2022-11-20T05:19:18;7.20;95.50
62154;DHT22;48140;45.486;9.226;2022-11-20T05:21:43;7.20;95.50
62154;DHT22;48140;45.486;9.226;2022-11-20T05:24:09;7.20;95.80
62154;DHT22;48140;45.486;9.226;2022-11-20T05:26:35;7.10;95.60
62154;DHT22;48140;45.486;9.226;2022-11-20T05:29:00;7.10;95.60
62154;DHT22;48140;45.486;9.226;2022-11-20T05:31:26;7.10;95.60
62154;DHT22;48140;45.486;9.226;2022-11-20T05:33:51;7.10;95.50
62154;DHT22;48140;45.486;9.226;2022-11-20T05:36:17;7.10;95.10
62154;DHT22;48140;45.486;9.226;2022-11-20T05:38:43;7.10;94.90
62154;DHT22;48140;45.486;9.226;2022-11-20T05:41:18;7.10;94.90
62154;DHT22;48140;45.486;9.226;2022-11-20T05:43:45;7.10;95.00
62154;DHT22;48140;45.486;9.226;2022-11-20T05:46:11;7.10;95.10
62154;DHT22;48140;45.486;9.226;2022-11-20T05:48:38;7.10;95.00
62154;DHT22;48140;45.486;9.226;2022-11-20T05:51:04;7.10;94.80
62154;DHT22;48140;45.486;9.226;2022-11-20T05:53:31;7.00;94.50
62154;DHT22;48140;45.486;9.226;2022-11-20T05:56:03;7.00;94.50
62154;DHT22;48140;45.486;9.226;2022-11-20T05:58:30;7.00;94.50
62154;DHT22;48140;45.486;9.226;2022-11-20T06:01:02;7.00;94.60
62154;DHT22;48140;45.486;9.226;2022-11-20T06:03:28;6.90;94.70
62154;DHT22;48140;45.486;9.226;2022-11-20T06:05:53;6.90;95.10
62154;DHT22;48140;45.486;9.226;2022-11-20T06:08:19;7.00;95.40
62154;DHT22;48140;45.486;9.226;2022-11-20T06:10:44;6.90;95.30
62154;DHT22;48140;45.486;9.226;2022-11-20T06:13:10;6.80;95.30
62154;DHT22;48140;45.486;9.226;2022-11-20T06:15:35;6.90;95.70
62154;DHT22;48140;45.486;9.226;2022-11-20T06:18:01;6.90;95.50
62154;DHT22;48140;45.486;9.226;2022-11-20T06:20:26;6.90;95.50
62154;DHT22;48140;45.486;9.226;2022-11-20T06:22:52;6.90;95.10
62154;DHT22;48140;45.486;9.226;2022-11-20T06:25:17;6.90;95.00
62154;DHT22;48140;45.486;9.226;2022-11-20T06:27:43;6.90;94.80
62154;DHT22;48140;45.486;9.226;2022-11-20T06:30:11;6.90;94.50
62154;DHT22;48140;45.486;9.226;2022-11-20T06:32:36;7.00;93.80
62154;DHT22;48140;45.486;9.226;2022-11-20T06:35:02;7.00;93.60
62154;DHT22;48140;45.486;9.226;2022-11-20T06:37:27;6.90;93.70
62154;DHT22;48140;45.486;9.226;2022-11-20T06:39:53;6.90;93.90
62154;DHT22;48140;45.486;9.226;2022-11-20T06:42:18;6.90;94.00
62154;DHT22;48140;45.486;9.226;2022-11-20T06:44:44;6.80;94.00
62154;DHT22;48140;45.486;9.226;2022-11-20T06:47:09;6.80;94.50
62154;DHT22;48140;45.486;9.226;2022-11-20T06:49:35;6.90;93.90
62154;DHT22;48140;45.486;9.226;2022-11-20T06:52:02;6.80;94.40
62154;DHT22;48140;45.486;9.226;2022-11-20T06:54:27;6.90;93.90
62154;DHT22;48140;45.486;9.226;2022-11-20T06:56:53;6.90;93.70
62154;DHT22;48140;45.486;9.226;2022-11-20T06:59:18;7.00;93.70
62154;DHT22;48140;45.486;9.226;2022-11-20T07:01:44;7.10;93.20
62154;DHT22;48140;45.486;9.226;2022-11-20T07:04:09;7.10;93.00
62154;DHT22;48140;45.486;9.226;2022-11-20T07:06:35;7.10;92.90
62154;DHT22;48140;45.486;9.226;2022-11-20T07:09:00;7.10;93.00
62154;DHT22;48140;45.486;9.226;2022-11-20T07:11:26;7.20;92.80
62154;DHT22;48140;45.486;9.226;2022-11-20T07:13:52;7.20;92.80
62154;DHT22;48140;45.486;9.226;2022-11-20T07:16:17;7.30;92.70
62154;DHT22;48140;45.486;9.226;2022-11-20T07:18:43;7.30;92.50
62154;DHT22;48140;45.486;9.226;2022-11-20T07:21:09;7.30;92.30
62154;DHT22;48140;45.486;9.226;2022-11-20T07:23:35;7.30;92.10
62154;DHT22;48140;45.486;9.226;2022-11-20T07:26:07;7.30;91.70
62154;DHT22;48140;45.486;9.226;2022-11-20T07:28:33;7.30;91.70
62154;DHT22;48140;45.486;9.226;2022-11-20T07:30:59;7.30;91.50
62154;DHT22;48140;45.486;9.226;2022-11-20T07:33:25;7.40;91.60
62154;DHT22;48140;45.486;9.226;2022-11-20T07:35:51;7.40;91.80
62154;DHT22;48140;45.486;9.226;2022-11-20T07:38:16;7.40;91.90
62154;DHT22;48140;45.486;9.226;2022-11-20T07:40:42;7.40;91.60
62154;DHT22;48140;45.486;9.226;2022-11-20T07:43:07;7.50;90.80
62154;DHT22;48140;45.486;9.226;2022-11-20T07:45:33;7.60;90.30
62154;DHT22;48140;45.486;9.226;2022-11-20T07:47:58;7.60;90.10
62154;DHT22;48140;45.486;9.226;2022-11-20T07:50:24;7.70;90.60
62154;DHT22;48140;45.486;9.226;2022-11-20T07:52:49;7.80;90.10
62154;DHT22;48140;45.486;9.226;2022-11-20T07:55:15;7.90;89.30
62154;DHT22;48140;45.486;9.226;2022-11-20T07:57:41;7.90;89.20
62154;DHT22;48140;45.486;9.226;2022-11-20T08:00:07;8.00;88.60
62154;DHT22;48140;45.486;9.226;2022-11-20T08:02:36;8.10;87.90
62154;DHT22;48140;45.486;9.226;2022-11-20T08:05:02;8.20;87.20
62154;DHT22;48140;45.486;9.226;2022-11-20T08:07:27;8.20;86.40
62154;DHT22;48140;45.486;9.226;2022-11-20T08:09:53;8.20;85.00
62154;DHT22;48140;45.486;9.226;2022-11-20T08:12:19;8.30;84.20
62154;DHT22;48140;45.486;9.226;2022-11-20T08:15:04;8.40;83.40
62154;DHT22;48140;45.486;9.226;2022-11-20T08:17:30;8.50;82.70
62154;DHT22;48140;45.486;9.226;2022-11-20T08:19:55;8.60;84.30
62154;DHT22;48140;45.486;9.226;2022-11-20T08:22:21;8.70;84.10
62154;DHT22;48140;45.486;9.226;2022-11-20T08:24:46;8.80;82.60
62154;DHT22;48140;45.486;9.226;2022-11-20T08:27:12;8.90;81.80
62154;DHT22;48140;45.486;9.226;2022-11-20T08:29:38;9.00;80.80
62154;DHT22;48140;45.486;9.226;2022-11-20T08:32:03;9.10;80.60
62154;DHT22;48140;45.486;9.226;2022-11-20T08:34:29;9.10;80.20
62154;DHT22;48140;45.486;9.226;2022-11-20T08:36:54;9.20;79.70
62154;DHT22;48140;45.486;9.226;2022-11-20T08:39:20;9.30;81.40
62154;DHT22;48140;45.486;9.226;2022-11-20T08:41:45;9.30;78.90
62154;DHT22;48140;45.486;9.226;2022-11-20T08:44:11;9.40;78.60
62154;DHT22;48140;45.486;9.226;2022-11-20T08:46:37;9.40;78.70
62154;DHT22;48140;45.486;9.226;2022-11-20T08:49:07;9.50;78.40
62154;DHT22;48140;45.486;9.226;2022-11-20T08:51:33;9.60;77.70
62154;DHT22;48140;45.486;9.226;2022-11-20T08:53:58;9.90;76.70
62154;DHT22;48140;45.486;9.226;2022-11-20T08:56:24;10.30;77.40
62154;DHT22;48140;45.486;9.226;2022-11-20T08:58:50;10.70;75.10
62154;DHT22;48140;45.486;9.226;2022-11-20T09:01:16;11.40;73.40
62154;DHT22;48140;45.486;9.226;2022-11-20T09:03:42;12.20;69.90
62154;DHT22;48140;45.486;9.226;2022-11-20T09:06:07;12.90;66.70
62154;DHT22;48140;45.486;9.226;2022-11-20T09:08:33;14.00;64.80
62154;DHT22;48140;45.486;9.226;2022-11-20T09:10:59;14.70;60.00
62154;DHT22;48140;45.486;9.226;2022-11-20T09:13:26;15.40;58.00
62154;DHT22;48140;45.486;9.226;2022-11-20T09:15:58;16.00;56.40
62154;DHT22;48140;45.486;9.226;2022-11-20T09:18:25;16.40;53.40
62154;DHT22;48140;45.486;9.226;2022-11-20T09:20:50;17.10;51.60
62154;DHT22;48140;45.486;9.226;2022-11-20T09:23:16;17.50;50.80
62154;DHT22;48140;45.486;9.226;2022-11-20T09:25:42;17.80;49.40
62154;DHT22;48140;45.486;9.226;2022-11-20T09:28:08;18.00;48.80
62154;DHT22;48140;45.486;9.226;2022-11-20T09:30:33;18.00;47.80
62154;DHT22;48140;45.486;9.226;2022-11-20T09:32:59;18.50;45.80
62154;DHT22;48140;45.486;9.226;2022-11-20T09:35:24;18.40;44.10
62154;DHT22;48140;45.486;9.226;2022-11-20T09:37:50;18.20;44.00
62154;DHT22;48140;45.486;9.226;2022-11-20T09:40:26;18.20;44.60
62154;DHT22;48140;45.486;9.226;2022-11-20T09:48:26;18.60;43.20
62154;DHT22;48140;45.486;9.226;2022-11-20T10:01:00;19.10;43.80
62154;DHT22;48140;45.486;9.226;2022-11-20T10:03:40;19.30;44.10
62154;DHT22;48140;45.486;9.226;2022-11-20T10:06:10;19.60;43.70
62154;DHT22;48140;45.486;9.226;2022-11-20T10:08:42;19.70;44.30
62154;DHT22;48140;45.486;9.226;2022-11-20T10:11:35;19.90;42.50
62154;DHT22;48140;45.486;9.226;2022-11-20T10:16:52;20.60;39.90
62154;DHT22;48140;45.486;9.226;2022-11-20T10:29:12;20.30;38.90
62154;DHT22;48140;45.486;9.226;2022-11-20T10:31:50;20.40;39.00
62154;DHT22;48140;45.486;9.226;2022-11-20T10:34:20;20.00;39.40
62154;DHT22;48140;45.486;9.226;2022-11-20T10:36:52;20.60;38.30
62154;DHT22;48140;45.486;9.226;2022-11-20T10:42:04;20.50;37.20
62154;DHT22;48140;45.486;9.226;2022-11-20T10:44:33;21.00;36.10
62154;DHT22;48140;45.486;9.226;2022-11-20T10:47:18;21.40;34.40
62154;DHT22;48140;45.486;9.226;2022-11-20T10:49:46;21.30;33.70
62154;DHT22;48140;45.486;9.226;2022-11-20T10:57:10;21.30;34.20
62154;DHT22;48140;45.486;9.226;2022-11-20T11:02:15;21.70;34.60
62154;DHT22;48140;45.486;9.226;2022-11-20T11:04:49;22.10;34.10
62154;DHT22;48140;45.486;9.226;2022-11-20T11:09:44;22.20;33.60
62154;DHT22;48140;45.486;9.226;2022-11-20T11:12:11;22.30;33.20
62154;DHT22;48140;45.486;9.226;2022-11-20T11:14:47;22.40;33.40
62154;DHT22;48140;45.486;9.226;2022-11-20T11:17:18;22.30;34.00
62154;DHT22;48140;45.486;9.226;2022-11-20T11:19:45;22.20;33.00
62154;DHT22;48140;45.486;9.226;2022-11-20T11:22:10;22.20;33.40
62154;DHT22;48140;45.486;9.226;2022-11-20T11:24:43;22.80;32.10
62154;DHT22;48140;45.486;9.226;2022-11-20T11:27:16;23.00;31.80
62154;DHT22;48140;45.486;9.226;2022-11-20T11:29:42;22.90;32.60
62154;DHT22;48140;45.486;9.226;2022-11-20T11:32:12;22.90;31.90
62154;DHT22;48140;45.486;9.226;2022-11-20T11:34:38;22.70;32.50
62154;DHT22;48140;45.486;9.226;2022-11-20T11:37:04;21.60;35.00
62154;DHT22;48140;45.486;9.226;2022-11-20T11:39:30;20.30;36.60
62154;DHT22;48140;45.486;9.226;2022-11-20T11:41:57;21.50;36.20
62154;DHT22;48140;45.486;9.226;2022-11-20T11:47:23;22.10;34.30
62154;DHT22;48140;45.486;9.226;2022-11-20T11:49:49;22.30;33.70
62154;DHT22;48140;45.486;9.226;2022-11-20T11:52:25;22.70;32.80
62154;DHT22;48140;45.486;9.226;2022-11-20T11:54:55;22.10;33.70
62154;DHT22;48140;45.486;9.226;2022-11-20T11:57:38;21.10;35.20
62154;DHT22;48140;45.486;9.226;2022-11-20T12:00:10;21.80;35.00
62154;DHT22;48140;45.486;9.226;2022-11-20T12:05:26;22.50;33.80
62154;DHT22;48140;45.486;9.226;2022-11-20T12:07:54;22.50;34.10
62154;DHT22;48140;45.486;9.226;2022-11-20T12:12:50;22.80;32.60
62154;DHT22;48140;45.486;9.226;2022-11-20T12:15:33;22.90;32.10
62154;DHT22;48140;45.486;9.226;2022-11-20T12:17:59;23.00;31.40
62154;DHT22;48140;45.486;9.226;2022-11-20T12:20:29;22.70;32.50
62154;DHT22;48140;45.486;9.226;2022-11-20T12:23:09;22.60;32.30
62154;DHT22;48140;45.486;9.226;2022-11-20T12:25:35;22.40;33.50
62154;DHT22;48140;45.486;9.226;2022-11-20T12:36:01;23.20;32.90
62154;DHT22;48140;45.486;9.226;2022-11-20T12:38:52;23.80;30.40
62154;DHT22;48140;45.486;9.226;2022-11-20T12:41:43;23.60;30.10
62154;DHT22;48140;45.486;9.226;2022-11-20T12:49:43;24.20;29.30
62154;DHT22;48140;45.486;9.226;2022-11-20T12:52:26;24.40;29.10
62154;DHT22;48140;45.486;9.226;2022-11-20T12:55:02;24.20;29.20
62154;DHT22;48140;45.486;9.226;2022-11-20T13:00:09;23.20;29.30
62154;DHT22;48140;45.486;9.226;2022-11-20T13:07:30;23.20;29.50
62154;DHT22;48140;45.486;9.226;2022-11-20T13:09:57;23.60;29.30
62154;DHT22;48140;45.486;9.226;2022-11-20T13:12:37;23.80;29.00
62154;DHT22;48140;45.486;9.226;2022-11-20T13:15:22;24.00;29.00
62154;DHT22;48140;45.486;9.226;2022-11-20T13:20:27;24.70;28.20
62154;DHT22;48140;45.486;9.226;2022-11-20T13:22:54;23.40;28.80
62154;DHT22;48140;45.486;9.226;2022-11-20T13:27:49;23.10;29.10
62154;DHT22;48140;45.486;9.226;2022-11-20T13:30:15;23.40;28.50
62154;DHT22;48140;45.486;9.226;2022-11-20T13:32:52;23.00;29.00
62154;DHT22;48140;45.486;9.226;2022-11-20T13:38:00;23.90;28.10
62154;DHT22;48140;45.486;9.226;2022-11-20T13:40:26;24.20;28.00
62154;DHT22;48140;45.486;9.226;2022-11-20T13:42:56;24.40;27.20
62154;DHT22;48140;45.486;9.226;2022-11-20T13:45:24;23.40;29.00
62154;DHT22;48140;45.486;9.226;2022-11-20T13:47:51;23.70;28.70
62154;DHT22;48140;45.486;9.226;2022-11-20T13:50:16;23.60;28.40
62154;DHT22;48140;45.486;9.226;2022-11-20T14:00:48;23.60;28.60
62154;DHT22;48140;45.486;9.226;2022-11-20T14:13:26;23.90;27.70
62154;DHT22;48140;45.486;9.226;2022-11-20T14:15:56;23.90;28.00
62154;DHT22;48140;45.486;9.226;2022-11-20T14:18:21;23.60;27.50
62154;DHT22;48140;45.486;9.226;2022-11-20T14:20:47;23.50;27.90
62154;DHT22;48140;45.486;9.226;2022-11-20T14:23:22;23.60;27.90
62154;DHT22;48140;45.486;9.226;2022-11-20T14:25:48;23.20;28.10
62154;DHT22;48140;45.486;9.226;2022-11-20T14:28:19;22.50;27.60
62154;DHT22;48140;45.486;9.226;2022-11-20T14:30:47;22.20;28.10
62154;DHT22;48140;45.486;9.226;2022-11-20T14:33:13;21.90;28.40
62154;DHT22;48140;45.486;9.226;2022-11-20T14:35:49;22.40;27.80
62154;DHT22;48140;45.486;9.226;2022-11-20T14:38:16;22.90;27.30
62154;DHT22;48140;45.486;9.226;2022-11-20T14:40:42;22.50;27.30
62154;DHT22;48140;45.486;9.226;2022-11-20T14:43:16;22.90;27.30
62154;DHT22;48140;45.486;9.226;2022-11-20T14:45:42;23.00;27.00
62154;DHT22;48140;45.486;9.226;2022-11-20T14:48:08;22.90;27.10
62154;DHT22;48140;45.486;9.226;2022-11-20T14:50:34;22.50;27.80
62154;DHT22;48140;45.486;9.226;2022-11-20T14:53:00;22.30;27.50
62154;DHT22;48140;45.486;9.226;2022-11-20T14:55:33;21.70;28.90
62154;DHT22;48140;45.486;9.226;2022-11-20T14:58:00;22.00;28.70
62154;DHT22;48140;45.486;9.226;2022-11-20T15:00:27;21.30;29.90
62154;DHT22;48140;45.486;9.226;2022-11-20T15:02:53;21.10;30.00
62154;DHT22;48140;45.486;9.226;2022-11-20T15:05:20;21.10;30.10
62154;DHT22;48140;45.486;9.226;2022-11-20T15:07:47;21.50;30.20
62154;DHT22;48140;45.486;9.226;2022-11-20T15:10:23;21.60;30.00
62154;DHT22;48140;45.486;9.226;2022-11-20T15:12:53;21.70;30.00
62154;DHT22;48140;45.486;9.226;2022-11-20T15:15:53;21.80;30.00
62154;DHT22;48140;45.486;9.226;2022-11-20T15:18:15;21.30;30.40
62154;DHT22;48140;45.486;9.226;2022-11-20T15:20:41;21.30;30.60
62154;DHT22;48140;45.486;9.226;2022-11-20T15:23:11;21.00;31.50
62154;DHT22;48140;45.486;9.226;2022-11-20T15:25:37;20.90;31.90
62154;DHT22;48140;45.486;9.226;2022-11-20T15:28:04;20.80;32.30
62154;DHT22;48140;45.486;9.226;2022-11-20T15:30:33;20.40;33.30
62154;DHT22;48140;45.486;9.226;2022-11-20T15:32:58;19.90;33.90
62154;DHT22;48140;45.486;9.226;2022-11-20T15:35:24;19.60;35.30
62154;DHT22;48140;45.486;9.226;2022-11-20T15:37:51;19.20;35.70
62154;DHT22;48140;45.486;9.226;2022-11-20T15:40:16;18.40;37.80
62154;DHT22;48140;45.486;9.226;2022-11-20T15:42:42;17.40;39.80
62154;DHT22;48140;45.486;9.226;2022-11-20T15:45:32;16.70;41.60
62154;DHT22;48140;45.486;9.226;2022-11-20T15:47:59;15.40;45.80
62154;DHT22;48140;45.486;9.226;2022-11-20T15:50:26;15.10;47.60
62154;DHT22;48140;45.486;9.226;2022-11-20T15:52:52;14.90;48.50
62154;DHT22;48140;45.486;9.226;2022-11-20T15:55:18;14.80;48.90
62154;DHT22;48140;45.486;9.226;2022-11-20T15:57:43;14.60;50.20
62154;DHT22;48140;45.486;9.226;2022-11-20T16:00:10;14.30;52.00
62154;DHT22;48140;45.486;9.226;2022-11-20T16:02:35;14.20;53.30
62154;DHT22;48140;45.486;9.226;2022-11-20T16:05:01;13.80;55.00
62154;DHT22;48140;45.486;9.226;2022-11-20T16:07:26;13.80;57.10
62154;DHT22;48140;45.486;9.226;2022-11-20T16:09:52;13.60;57.00
62154;DHT22;48140;45.486;9.226;2022-11-20T16:12:17;13.50;57.80
62154;DHT22;48140;45.486;9.226;2022-11-20T16:15:03;13.40;58.30
62154;DHT22;48140;45.486;9.226;2022-11-20T16:17:47;13.20;58.70
62154;DHT22;48140;45.486;9.226;2022-11-20T16:20:13;13.00;59.80
62154;DHT22;48140;45.486;9.226;2022-11-20T16:22:38;13.00;60.50
62154;DHT22;48140;45.486;9.226;2022-11-20T16:25:04;12.90;60.80
62154;DHT22;48140;45.486;9.226;2022-11-20T16:27:29;12.90;61.70
62154;DHT22;48140;45.486;9.226;2022-11-20T16:29:55;12.90;61.70
62154;DHT22;48140;45.486;9.226;2022-11-20T16:32:20;12.80;62.00
62154;DHT22;48140;45.486;9.226;2022-11-20T16:34:46;12.70;62.60
62154;DHT22;48140;45.486;9.226;2022-11-20T16:37:11;12.70;63.00
62154;DHT22;48140;45.486;9.226;2022-11-20T16:39:36;12.70;63.40
62154;DHT22;48140;45.486;9.226;2022-11-20T16:42:03;12.70;63.40
62154;DHT22;48140;45.486;9.226;2022-11-20T16:44:28;12.80;64.00
62154;DHT22;48140;45.486;9.226;2022-11-20T16:46:54;12.70;64.00
62154;DHT22;48140;45.486;9.226;2022-11-20T16:49:20;12.70;65.80
62154;DHT22;48140;45.486;9.226;2022-11-20T16:51:45;12.60;65.80
62154;DHT22;48140;45.486;9.226;2022-11-20T16:54:12;12.60;68.00
62154;DHT22;48140;45.486;9.226;2022-11-20T16:56:37;12.60;68.00
62154;DHT22;48140;45.486;9.226;2022-11-20T16:59:04;12.60;68.00
62154;DHT22;48140;45.486;9.226;2022-11-20T17:01:31;12.60;67.10
62154;DHT22;48140;45.486;9.226;2022-11-20T17:06:23;12.30;68.40
62154;DHT22;48140;45.486;9.226;2022-11-20T17:08:49;12.20;69.60
62154;DHT22;48140;45.486;9.226;2022-11-20T17:11:16;12.10;69.00
62154;DHT22;48140;45.486;9.226;2022-11-20T17:13:43;12.10;69.90
62154;DHT22;48140;45.486;9.226;2022-11-20T17:16:09;12.20;70.90
62154;DHT22;48140;45.486;9.226;2022-11-20T17:18:35;12.10;70.90
62154;DHT22;48140;45.486;9.226;2022-11-20T17:21:01;12.20;71.40
62154;DHT22;48140;45.486;9.226;2022-11-20T17:23:30;12.20;72.00
62154;DHT22;48140;45.486;9.226;2022-11-20T17:26:03;12.20;71.20
62154;DHT22;48140;45.486;9.226;2022-11-20T17:28:29;12.20;71.90